createdAt,value
2022-10-04T00:00:10.271Z,89.31
2022-10-04T00:02:12.369Z,88.52
2022-10-04T00:04:26.448Z,88.87
2022-10-04T00:06:29.479Z,89.13
2022-10-04T00:09:09.499Z,88.84
2022-10-04T00:11:17.778Z,88.83
2022-10-04T00:13:25.776Z,89.17
2022-10-04T00:15:37.487Z,88.87
2022-10-04T00:17:39.836Z,88.70
2022-10-04T00:19:47.933Z,88.76
2022-10-04T00:21:56.466Z,88.78
2022-10-04T00:24:11.389Z,88.70
2022-10-04T00:26:35.668Z,88.74
2022-10-04T00:28:37.737Z,88.76
2022-10-04T00:30:40.516Z,88.84
2022-10-04T00:32:42.524Z,88.60
2022-10-04T00:34:50.945Z,89.13
2022-10-04T00:36:57.112Z,88.62
2022-10-04T00:39:05.602Z,89.00
2022-10-04T00:41:10.302Z,89.23
2022-10-04T00:43:15.429Z,88.81
2022-10-04T00:45:25.391Z,88.86
2022-10-04T00:47:48.703Z,89.22
2022-10-04T00:49:59.369Z,88.92
2022-10-04T00:52:15.710Z,89.36
2022-10-04T00:54:35.323Z,89.26
2022-10-04T00:57:01.767Z,89.56
2022-10-04T00:59:25.103Z,89.61
2022-10-04T01:01:29.504Z,89.46
2022-10-04T01:03:42.835Z,89.89
2022-10-04T01:05:51.135Z,89.94
2022-10-04T01:08:15.971Z,89.38
2022-10-04T01:10:27.746Z,89.66
2022-10-04T01:12:42.634Z,89.14
2022-10-04T01:15:00.049Z,89.00
2022-10-04T01:17:04.099Z,89.70
2022-10-04T01:19:31.294Z,90.22
2022-10-04T01:21:35.498Z,90.33
2022-10-04T01:23:41.672Z,90.59
2022-10-04T01:25:50.887Z,90.52
2022-10-04T01:27:53.222Z,90.06
2022-10-04T01:29:55.323Z,90.44
2022-10-04T01:32:00.053Z,90.19
2022-10-04T01:34:05.255Z,90.08
2022-10-04T01:36:07.609Z,90.38
2022-10-04T01:38:09.680Z,91.10
2022-10-04T01:40:12.224Z,91.25
2022-10-04T01:42:26.956Z,91.53
2022-10-04T01:44:39.824Z,91.84
2022-10-04T01:46:42.295Z,91.96
2022-10-04T01:48:46.968Z,92.31
2022-10-04T01:50:59.119Z,92.50
2022-10-04T01:53:16.803Z,93.17
2022-10-04T01:55:29.290Z,93.53
2022-10-04T01:57:37.306Z,94.12
2022-10-04T01:59:46.694Z,94.36
2022-10-04T02:02:00.163Z,95.36
2022-10-04T02:04:12.842Z,96.04
2022-10-04T02:06:16.456Z,96.32
2022-10-04T02:08:26.198Z,96.21
2022-10-04T02:10:30.457Z,96.97
2022-10-04T02:12:34.990Z,97.63
2022-10-04T02:14:39.780Z,97.42
2022-10-04T02:16:46.668Z,97.92
2022-10-04T02:18:51.116Z,98.28
2022-10-04T02:20:55.276Z,98.26
2022-10-04T02:23:03.190Z,98.61
2022-10-04T02:25:06.405Z,98.68
2022-10-04T02:27:08.753Z,98.91
2022-10-04T02:29:10.997Z,99.84
2022-10-04T02:31:31.510Z,99.93
2022-10-04T02:33:38.623Z,100.00
2022-10-04T02:35:49.136Z,100.00
2022-10-04T02:37:59.220Z,100.00
2022-10-04T02:40:16.297Z,100.00
2022-10-04T02:42:22.438Z,100.00
2022-10-04T02:45:00.125Z,100.00
2022-10-04T02:47:16.578Z,100.00
2022-10-04T02:49:30.048Z,100.00
2022-10-04T02:51:38.733Z,100.00
2022-10-04T02:54:03.364Z,100.00
2022-10-04T02:56:06.806Z,100.00
2022-10-04T02:58:14.571Z,100.00
2022-10-04T03:00:16.792Z,100.00
2022-10-04T03:02:30.082Z,100.00
2022-10-04T03:04:38.706Z,100.00
2022-10-04T03:06:44.148Z,100.00
2022-10-04T03:08:51.656Z,100.00
2022-10-04T03:10:54.095Z,100.00
2022-10-04T03:12:59.521Z,100.00
2022-10-04T03:15:01.748Z,100.00
2022-10-04T03:17:07.373Z,100.00
2022-10-04T03:19:11.430Z,100.00
2022-10-04T03:21:16.151Z,100.00
2022-10-04T03:23:20.107Z,100.00
2022-10-04T03:25:42.008Z,100.00
2022-10-04T03:27:44.750Z,100.00
2022-10-04T03:29:47.562Z,100.00
2022-10-04T03:31:52.450Z,100.00
2022-10-04T03:33:57.401Z,100.00
2022-10-04T03:36:00.964Z,100.00
2022-10-04T03:38:09.066Z,100.00
2022-10-04T03:40:12.615Z,100.00
2022-10-04T03:42:25.792Z,100.00
2022-10-04T03:44:28.222Z,100.00
2022-10-04T03:46:30.128Z,100.00
2022-10-04T03:48:39.555Z,100.00
2022-10-04T03:50:48.168Z,100.00
2022-10-04T03:52:57.185Z,100.00
2022-10-04T03:55:03.510Z,100.00
2022-10-04T03:57:07.570Z,99.76
2022-10-04T03:59:18.016Z,99.16
2022-10-04T04:01:45.076Z,99.72
2022-10-04T04:03:53.848Z,99.58
2022-10-04T04:06:03.230Z,99.94
2022-10-04T04:08:12.980Z,100.00
2022-10-04T04:10:28.410Z,99.68
2022-10-04T04:12:44.264Z,99.86
2022-10-04T04:14:52.304Z,100.00
2022-10-04T04:17:15.907Z,100.00
2022-10-04T04:19:22.876Z,100.00
2022-10-04T04:21:26.884Z,100.00
2022-10-04T04:23:40.050Z,100.00
2022-10-04T04:25:46.131Z,98.56
2022-10-04T04:27:50.566Z,97.49
2022-10-04T04:29:53.427Z,97.23
2022-10-04T04:32:01.579Z,92.54
2022-10-04T04:34:16.744Z,90.96
2022-10-04T04:36:19.226Z,86.84
2022-10-04T04:38:24.762Z,82.35
2022-10-04T04:40:26.856Z,77.78
2022-10-04T04:42:35.040Z,74.85
2022-10-04T04:44:53.882Z,74.71
2022-10-04T04:46:56.936Z,73.38
2022-10-04T04:49:05.859Z,71.22
2022-10-04T04:51:08.108Z,66.91
2022-10-04T04:53:16.522Z,58.54
2022-10-04T04:55:21.195Z,55.71
2022-10-04T04:57:24.890Z,55.63
2022-10-04T04:59:28.377Z,60.53
2022-10-04T05:01:42.277Z,62.66
2022-10-04T05:03:44.535Z,56.16
2022-10-04T05:05:48.157Z,56.51
2022-10-04T05:08:07.618Z,62.32
2022-10-04T05:10:34.004Z,65.13
2022-10-04T05:12:37.085Z,59.05
2022-10-04T05:14:45.144Z,53.13
2022-10-04T05:16:56.231Z,50.20
2022-10-04T05:19:02.831Z,51.59
2022-10-04T05:21:27.655Z,52.56
2022-10-04T05:23:33.652Z,54.63
2022-10-04T05:25:39.893Z,52.60
2022-10-04T05:27:45.091Z,54.09
2022-10-04T05:29:56.033Z,57.56
2022-10-04T05:33:02.960Z,61.30
2022-10-04T05:35:20.232Z,64.14
2022-10-04T05:37:57.808Z,66.70
2022-10-04T05:40:15.277Z,69.67
2022-10-04T05:42:24.516Z,71.50
2022-10-04T05:44:36.167Z,73.30
2022-10-04T05:46:43.897Z,74.40
2022-10-04T05:48:49.423Z,76.15
2022-10-04T05:50:51.675Z,76.76
2022-10-04T05:53:07.849Z,78.81
2022-10-04T05:55:13.241Z,80.21
2022-10-04T05:57:48.021Z,80.79
2022-10-04T06:00:07.079Z,81.67
2022-10-04T06:02:40.857Z,81.52
2022-10-04T06:05:11.300Z,82.14
2022-10-04T06:07:32.205Z,82.27
2022-10-04T06:10:05.176Z,82.01
2022-10-04T06:12:44.376Z,82.65
2022-10-04T06:14:58.605Z,82.23
2022-10-04T06:17:40.875Z,82.19
2022-10-04T06:20:04.848Z,82.34
2022-10-04T06:22:16.929Z,81.86
2022-10-04T06:24:27.023Z,80.93
2022-10-04T06:26:46.087Z,80.09
2022-10-04T06:29:01.121Z,80.11
2022-10-04T06:31:38.403Z,79.13
2022-10-04T06:33:46.694Z,79.56
2022-10-04T06:36:05.328Z,79.14
2022-10-04T06:38:10.859Z,78.85
2022-10-04T06:40:30.545Z,78.90
2022-10-04T06:42:42.399Z,78.40
2022-10-04T06:44:53.486Z,77.87
2022-10-04T06:47:35.518Z,77.23
2022-10-04T06:49:54.589Z,77.54
2022-10-04T06:51:56.799Z,77.92
2022-10-04T06:54:43.980Z,76.85
2022-10-04T06:56:59.262Z,76.50
2022-10-04T06:59:17.430Z,76.86
2022-10-04T07:01:35.493Z,76.09
2022-10-04T07:03:51.332Z,75.44
2022-10-04T07:06:07.484Z,75.17
2022-10-04T07:08:34.404Z,74.14
2022-10-04T07:10:45.172Z,74.56
2022-10-04T07:13:13.090Z,73.01
2022-10-04T07:15:25.153Z,73.58
2022-10-04T07:17:33.294Z,74.19
2022-10-04T07:19:42.151Z,74.03
2022-10-04T07:22:03.676Z,75.22
2022-10-04T07:24:12.531Z,74.76
2022-10-04T07:26:24.036Z,74.80
2022-10-04T07:28:51.096Z,75.37
2022-10-04T07:31:04.124Z,75.50
2022-10-04T07:33:12.527Z,74.43
2022-10-04T07:35:32.944Z,73.69
2022-10-04T07:38:03.921Z,73.22
2022-10-04T07:40:20.105Z,72.03
2022-10-04T07:42:30.331Z,71.49
2022-10-04T07:44:39.920Z,70.59
2022-10-04T07:46:53.085Z,68.52
2022-10-04T07:48:57.802Z,66.93
2022-10-04T07:51:12.807Z,67.22
2022-10-04T07:53:30.509Z,66.71
2022-10-04T07:55:52.301Z,66.23
2022-10-04T07:58:30.411Z,66.92
2022-10-04T08:00:49.640Z,66.54
2022-10-04T08:02:58.869Z,65.94
2022-10-04T08:05:22.889Z,64.85
2022-10-04T08:07:33.746Z,64.42
2022-10-04T08:09:50.887Z,63.74
2022-10-04T08:12:35.297Z,64.27
2022-10-04T08:14:53.301Z,64.79
2022-10-04T08:16:56.516Z,65.48
2022-10-04T08:19:23.614Z,65.65
2022-10-04T08:21:55.344Z,66.07
2022-10-04T08:24:16.695Z,66.72
2022-10-04T08:26:34.121Z,66.84
2022-10-04T08:29:11.670Z,66.61
2022-10-04T08:31:28.165Z,66.34
2022-10-04T08:33:51.659Z,65.91
2022-10-04T08:36:03.325Z,66.00
2022-10-04T08:38:21.693Z,65.33
2022-10-04T08:40:45.065Z,64.93
2022-10-04T08:43:09.389Z,64.51
2022-10-04T08:45:38.413Z,64.48
2022-10-04T08:47:52.383Z,65.08
2022-10-04T08:50:19.582Z,65.71
2022-10-04T08:52:24.648Z,66.25
2022-10-04T08:54:45.500Z,66.10
2022-10-04T08:56:57.952Z,65.33
2022-10-04T08:59:06.892Z,65.00
2022-10-04T09:01:50.553Z,63.98
2022-10-04T09:04:34.714Z,62.96
2022-10-04T09:06:54.990Z,63.33
2022-10-04T09:09:24.366Z,64.09
2022-10-04T09:11:48.074Z,64.54
2022-10-04T09:13:50.091Z,64.28
2022-10-04T09:15:56.302Z,63.86
2022-10-04T09:17:58.366Z,62.42
2022-10-04T09:20:37.831Z,61.97
2022-10-04T09:22:40.729Z,61.84
2022-10-04T09:25:15.132Z,61.73
2022-10-04T09:27:59.836Z,62.92
2022-10-04T09:30:35.447Z,63.42
2022-10-04T09:32:43.433Z,64.26
2022-10-04T09:34:52.682Z,64.02
2022-10-04T09:37:34.838Z,64.54
2022-10-04T09:40:47.401Z,64.34
2022-10-04T09:43:11.829Z,64.55
2022-10-04T09:45:37.552Z,64.77
2022-10-04T09:51:00.844Z,65.59
2022-10-04T09:53:56.360Z,66.38
2022-10-04T09:56:04.481Z,67.36
2022-10-04T09:58:56.582Z,67.40
2022-10-04T10:01:23.444Z,68.20
2022-10-04T10:03:49.211Z,69.28
2022-10-04T10:06:41.702Z,69.57
2022-10-04T10:08:56.545Z,68.77
2022-10-04T10:11:32.769Z,69.71
2022-10-04T10:13:59.787Z,69.88
2022-10-04T10:16:11.980Z,70.61
2022-10-04T10:18:29.540Z,74.43
2022-10-04T10:20:45.729Z,79.61
2022-10-04T10:23:22.637Z,81.70
2022-10-04T10:26:02.974Z,83.62
2022-10-04T10:28:33.209Z,87.51
2022-10-04T10:31:11.528Z,86.07
2022-10-04T10:33:38.158Z,88.05
2022-10-04T10:36:02.144Z,88.23
2022-10-04T10:38:25.975Z,86.55
2022-10-04T10:40:59.769Z,88.29
2022-10-04T10:43:07.573Z,89.79
2022-10-04T10:45:45.961Z,90.08
2022-10-04T10:48:36.025Z,90.57
2022-10-04T10:51:00.695Z,89.78
2022-10-04T10:53:30.236Z,90.18
2022-10-04T10:55:35.546Z,90.06
2022-10-04T10:57:52.988Z,89.76
2022-10-04T11:00:32.686Z,89.91
2022-10-04T11:02:50.676Z,90.16
2022-10-04T11:05:30.873Z,91.22
2022-10-04T11:07:51.407Z,91.73
2022-10-04T11:10:32.463Z,90.96
2022-10-04T11:12:47.229Z,90.81
2022-10-04T11:15:07.857Z,89.30
2022-10-04T11:17:28.776Z,89.04
2022-10-04T11:20:06.129Z,89.39
2022-10-04T11:22:11.222Z,90.12
2022-10-04T11:24:44.671Z,90.47
2022-10-04T11:26:49.638Z,91.23
2022-10-04T11:29:04.191Z,91.29
2022-10-04T11:31:45.928Z,91.50
2022-10-04T11:34:18.531Z,91.08
2022-10-04T11:37:12.289Z,91.72
2022-10-04T11:39:36.353Z,90.94
2022-10-04T11:41:50.425Z,90.97
2022-10-04T11:44:20.346Z,91.39
2022-10-04T11:47:10.165Z,90.45
2022-10-04T11:49:36.815Z,89.97
2022-10-04T11:52:08.990Z,88.89
2022-10-04T11:54:27.581Z,87.68
2022-10-04T11:56:56.667Z,85.72
2022-10-04T11:59:17.904Z,85.00
2022-10-04T12:01:40.773Z,84.08
2022-10-04T12:04:21.075Z,83.91
2022-10-04T12:07:08.568Z,83.15
2022-10-04T12:09:22.606Z,83.79
2022-10-04T12:11:53.341Z,83.85
2022-10-04T12:14:42.978Z,82.92
2022-10-04T12:17:12.825Z,82.45
2022-10-04T12:20:09.903Z,82.32
2022-10-04T12:22:32.744Z,81.09
2022-10-04T12:25:33.471Z,80.08
2022-10-04T12:28:01.119Z,81.00
2022-10-04T12:30:24.106Z,80.90
2022-10-04T12:32:44.210Z,80.20
2022-10-04T12:35:05.110Z,80.44
2022-10-04T12:37:20.514Z,80.75
2022-10-04T12:39:33.327Z,80.00
2022-10-04T12:42:05.262Z,80.02
2022-10-04T12:44:10.443Z,80.41
2022-10-04T12:46:41.385Z,79.84
2022-10-04T12:49:01.662Z,78.98
2022-10-04T12:51:20.318Z,78.66
2022-10-04T12:53:47.044Z,79.68
2022-10-04T12:56:13.468Z,79.49
2022-10-04T12:58:30.281Z,79.95
2022-10-04T13:00:41.719Z,80.49
2022-10-04T13:02:44.739Z,80.50
2022-10-04T13:04:54.787Z,80.60
2022-10-04T13:07:17.095Z,79.94
2022-10-04T13:09:40.297Z,79.43
2022-10-04T13:11:59.149Z,79.24
2022-10-04T13:14:04.497Z,79.01
2022-10-04T13:19:38.883Z,79.19
2022-10-04T13:21:53.447Z,79.48
2022-10-04T13:24:17.994Z,79.93
2022-10-04T13:26:53.372Z,80.93
2022-10-04T13:29:08.765Z,81.17
2022-10-04T13:31:33.268Z,81.74
2022-10-04T13:34:20.612Z,80.96
2022-10-04T13:36:43.472Z,81.38
2022-10-04T13:39:07.811Z,80.88
2022-10-04T13:41:27.903Z,81.33
2022-10-04T13:44:04.153Z,81.32
2022-10-04T13:46:41.585Z,81.51
2022-10-04T13:49:03.334Z,81.66
2022-10-04T13:51:05.641Z,80.66
2022-10-04T13:53:42.076Z,79.60
2022-10-04T13:56:37.550Z,80.21
2022-10-04T13:58:56.207Z,80.37
2022-10-04T14:01:35.948Z,79.92
2022-10-04T14:03:59.210Z,79.88
2022-10-04T14:06:13.702Z,80.07
2022-10-04T14:08:51.413Z,80.88
2022-10-04T14:11:16.862Z,80.02
2022-10-04T14:13:38.718Z,80.37
2022-10-04T14:16:20.308Z,81.20
2022-10-04T14:18:43.888Z,80.75
2022-10-04T14:21:20.379Z,81.05
2022-10-04T14:23:45.581Z,80.90
2022-10-04T14:26:12.434Z,81.69
2022-10-04T14:28:35.038Z,81.86
2022-10-04T14:30:57.984Z,81.62
2022-10-04T14:33:21.460Z,82.21
2022-10-04T14:35:42.309Z,82.07
2022-10-04T14:38:26.576Z,82.52
2022-10-04T14:40:34.839Z,82.59
2022-10-04T14:42:55.247Z,83.10
2022-10-04T14:45:19.784Z,83.35
2022-10-04T14:47:42.851Z,83.25
2022-10-04T14:50:00.250Z,84.17
2022-10-04T14:52:26.272Z,83.70
2022-10-04T14:54:42.433Z,84.51
2022-10-04T14:57:18.773Z,84.85
2022-10-04T14:59:50.979Z,85.10
2022-10-04T15:02:12.078Z,85.68
2022-10-04T15:04:35.889Z,85.66
2022-10-04T15:07:02.110Z,86.58
2022-10-04T15:09:16.229Z,87.08
2022-10-04T15:11:34.739Z,87.25
2022-10-04T15:13:58.787Z,87.82
2022-10-04T15:16:16.563Z,88.30
2022-10-04T15:18:52.501Z,88.42
2022-10-04T15:21:13.882Z,89.08
2022-10-04T15:23:18.163Z,89.41
2022-10-04T15:26:10.989Z,89.53
2022-10-04T15:29:00.245Z,90.09
2022-10-04T15:31:11.253Z,90.37
2022-10-04T15:33:28.481Z,90.86
2022-10-04T15:36:25.429Z,90.89
2022-10-04T15:38:32.791Z,91.28
2022-10-04T15:40:49.808Z,91.11
2022-10-04T15:43:18.879Z,91.45
2022-10-04T15:45:31.249Z,91.22
2022-10-04T15:47:50.413Z,91.16
2022-10-04T15:50:03.207Z,91.48
2022-10-04T15:52:33.915Z,91.65
2022-10-04T15:55:10.764Z,91.42
2022-10-04T15:57:32.155Z,91.48
2022-10-04T16:00:03.810Z,91.80
2022-10-04T16:02:09.796Z,91.93
2022-10-04T16:04:51.068Z,92.11
2022-10-04T16:07:08.203Z,91.96
2022-10-04T16:09:31.214Z,92.56
2022-10-04T16:11:46.639Z,92.29
2022-10-04T16:13:51.603Z,92.28
2022-10-04T16:16:30.873Z,92.09
2022-10-04T16:19:18.115Z,92.14
2022-10-04T16:22:01.640Z,92.06
2022-10-04T16:24:42.213Z,92.90
2022-10-04T16:26:45.182Z,92.65
2022-10-04T16:29:05.353Z,92.10
2022-10-04T16:31:44.999Z,91.99
2022-10-04T16:34:07.382Z,91.70
2022-10-04T16:36:22.367Z,91.46
2022-10-04T16:38:29.003Z,91.16
2022-10-04T16:40:53.136Z,90.96
2022-10-04T16:43:32.418Z,90.54
2022-10-04T16:45:59.198Z,89.88
2022-10-04T16:48:13.725Z,90.20
2022-10-04T16:50:55.151Z,89.51
2022-10-04T16:53:24.036Z,89.32
2022-10-04T16:55:46.177Z,89.04
2022-10-04T16:58:27.324Z,89.45
2022-10-04T17:00:37.178Z,88.84
2022-10-04T17:03:14.431Z,88.32
2022-10-04T17:05:33.551Z,88.55
2022-10-04T17:07:53.302Z,88.46
2022-10-04T17:10:34.420Z,88.81
2022-10-04T17:12:46.918Z,88.64
2022-10-04T17:14:58.133Z,88.71
2022-10-04T17:17:21.854Z,88.96
2022-10-04T17:19:45.605Z,88.91
2022-10-04T17:22:24.696Z,89.11
2022-10-04T17:24:45.665Z,89.21
2022-10-04T17:27:09.577Z,89.34
2022-10-04T17:29:37.880Z,89.04
2022-10-04T17:31:44.014Z,89.34
2022-10-04T17:34:39.992Z,89.81
2022-10-04T17:36:50.326Z,89.88
2022-10-04T17:39:00.560Z,89.97
2022-10-04T17:41:14.705Z,90.48
2022-10-04T17:43:30.390Z,90.58
2022-10-04T17:45:44.446Z,90.13
2022-10-04T17:48:16.454Z,90.24
2022-10-04T17:50:52.177Z,89.74
2022-10-04T17:53:18.752Z,89.74
2022-10-04T17:55:39.462Z,89.75
2022-10-04T17:57:41.622Z,89.46
2022-10-04T17:59:48.854Z,89.95
2022-10-04T18:02:04.447Z,89.65
2022-10-04T18:04:44.843Z,90.19
2022-10-04T18:07:10.419Z,91.31
2022-10-04T18:09:40.085Z,91.56
2022-10-04T18:11:48.045Z,92.39
2022-10-04T18:14:02.657Z,93.12
2022-10-04T18:16:43.959Z,93.84
2022-10-04T18:18:47.439Z,94.48
2022-10-04T18:20:52.636Z,95.09
2022-10-04T18:23:16.804Z,95.17
2022-10-04T18:25:26.288Z,95.37
2022-10-04T18:27:30.317Z,95.97
2022-10-04T18:29:41.787Z,95.56
2022-10-04T18:31:49.389Z,96.40
2022-10-04T18:33:54.215Z,96.00
2022-10-04T18:36:15.620Z,96.13
2022-10-04T18:38:31.185Z,96.54
2022-10-04T18:40:35.740Z,96.85
2022-10-04T18:42:42.200Z,96.76
2022-10-04T18:44:58.116Z,97.02
2022-10-04T18:47:02.500Z,97.16
2022-10-04T18:49:18.406Z,97.42
2022-10-04T18:51:37.873Z,97.52
2022-10-04T18:53:46.461Z,97.80
2022-10-04T18:55:58.986Z,98.38
2022-10-04T18:58:45.609Z,98.42
2022-10-04T19:01:22.888Z,98.82
2022-10-04T19:03:50.560Z,98.99
2022-10-04T19:06:31.603Z,98.96
2022-10-04T19:08:59.648Z,99.87
2022-10-04T19:11:12.794Z,99.58
2022-10-04T19:13:36.946Z,100.00
2022-10-04T19:15:41.951Z,100.00
2022-10-04T19:18:30.132Z,100.00
2022-10-04T19:20:49.005Z,100.00
2022-10-04T19:23:05.171Z,100.00
2022-10-04T19:25:30.334Z,100.00
2022-10-04T19:27:53.185Z,100.00
2022-10-04T19:29:55.205Z,100.00
2022-10-04T19:32:05.527Z,100.00
2022-10-04T19:34:14.794Z,100.00
2022-10-04T19:36:22.850Z,100.00
2022-10-04T19:38:43.594Z,100.00
2022-10-04T19:40:54.171Z,100.00
2022-10-04T19:43:08.406Z,99.40
2022-10-04T19:45:16.477Z,99.58
2022-10-04T19:47:21.637Z,98.71
2022-10-04T19:49:52.862Z,98.65
2022-10-04T19:52:14.929Z,98.33
2022-10-04T19:54:40.850Z,98.09
2022-10-04T19:56:47.946Z,98.09
2022-10-04T19:59:15.806Z,98.43
2022-10-04T20:01:30.088Z,98.71
2022-10-04T20:03:32.429Z,98.90
2022-10-04T20:05:42.153Z,99.12
2022-10-04T20:08:01.671Z,99.39
2022-10-04T20:10:36.318Z,99.21
2022-10-04T20:12:40.923Z,100.00
2022-10-04T20:14:45.189Z,99.83
2022-10-04T20:16:48.067Z,100.00
2022-10-04T20:18:57.896Z,100.00
2022-10-04T20:21:03.487Z,100.00
2022-10-04T20:23:10.606Z,100.00
2022-10-04T20:25:41.905Z,100.00
2022-10-04T20:27:46.707Z,100.00
2022-10-04T20:29:56.206Z,100.00
2022-10-04T20:31:58.672Z,100.00
2022-10-04T20:34:32.355Z,99.83
2022-10-04T20:36:55.047Z,99.67
2022-10-04T20:39:01.967Z,99.35
2022-10-04T20:41:07.529Z,99.84
2022-10-04T20:43:15.986Z,99.03
2022-10-04T20:45:24.226Z,99.40
2022-10-04T20:47:40.869Z,99.11
2022-10-04T20:49:50.209Z,99.26
2022-10-04T20:51:56.078Z,98.80
2022-10-04T20:54:06.558Z,98.74
2022-10-04T20:56:44.219Z,99.19
2022-10-04T20:58:57.458Z,99.06
2022-10-04T21:01:49.125Z,99.63
2022-10-04T21:04:46.550Z,99.00
2022-10-04T21:06:52.042Z,98.77
2022-10-04T21:08:54.342Z,99.07
2022-10-04T21:11:06.775Z,99.33
2022-10-04T21:13:43.270Z,99.37
2022-10-04T21:15:57.755Z,98.68
2022-10-04T21:18:09.813Z,98.92
2022-10-04T21:20:46.483Z,99.27
2022-10-04T21:23:07.235Z,98.69
2022-10-04T21:25:33.096Z,98.64
2022-10-04T21:27:37.557Z,99.25
2022-10-04T21:29:41.152Z,98.59
2022-10-04T21:31:43.713Z,98.61
2022-10-04T21:33:46.130Z,98.60
2022-10-04T21:35:52.184Z,98.74
2022-10-04T21:37:54.371Z,98.33
2022-10-04T21:39:56.531Z,98.76
2022-10-04T21:41:58.708Z,98.55
2022-10-04T21:44:00.993Z,98.80
2022-10-04T21:46:03.337Z,98.51
2022-10-04T21:48:05.427Z,98.83
2022-10-04T21:50:07.671Z,98.39
2022-10-04T21:52:09.866Z,98.28
2022-10-04T21:54:12.225Z,98.58
2022-10-04T21:56:14.362Z,98.38
2022-10-04T21:58:16.879Z,98.82
2022-10-04T22:00:19.360Z,98.38
2022-10-04T22:02:21.611Z,99.06
2022-10-04T22:04:24.208Z,99.12
2022-10-04T22:06:26.236Z,98.92
2022-10-04T22:08:29.027Z,98.40
2022-10-04T22:10:31.258Z,98.54
2022-10-04T22:12:33.372Z,98.68
2022-10-04T22:14:35.427Z,98.13
2022-10-04T22:16:37.763Z,98.46
2022-10-04T22:18:39.809Z,98.38
2022-10-04T22:20:41.970Z,98.21
2022-10-04T22:22:44.039Z,98.41
2022-10-04T22:24:46.202Z,98.63
2022-10-04T22:26:49.223Z,98.85
2022-10-04T22:28:54.730Z,98.47
2022-10-04T22:30:57.315Z,98.76
2022-10-04T22:33:01.996Z,98.20
2022-10-04T22:35:16.582Z,98.98
2022-10-04T22:37:24.540Z,98.62
2022-10-04T22:39:28.033Z,98.70
2022-10-04T22:41:42.217Z,98.25
2022-10-04T22:43:45.831Z,98.38
2022-10-04T22:45:48.186Z,98.08
2022-10-04T22:47:54.973Z,98.78
2022-10-04T22:49:57.767Z,98.51
2022-10-04T22:52:02.736Z,98.34
2022-10-04T22:54:11.949Z,98.33
2022-10-04T22:56:15.316Z,98.85
2022-10-04T22:58:18.408Z,98.95
2022-10-04T23:00:20.578Z,98.85
2022-10-04T23:02:29.582Z,98.89
2022-10-04T23:04:32.003Z,98.84
2022-10-04T23:06:36.907Z,99.19
2022-10-04T23:08:39.751Z,99.07
2022-10-04T23:10:42.546Z,98.79
2022-10-04T23:12:49.365Z,98.72
2022-10-04T23:14:54.223Z,98.96
2022-10-04T23:16:56.358Z,99.14
2022-10-04T23:19:10.852Z,98.94
2022-10-04T23:21:24.308Z,99.38
2022-10-04T23:23:28.818Z,99.32
2022-10-04T23:25:31.359Z,99.75
2022-10-04T23:27:34.280Z,99.94
2022-10-04T23:29:36.403Z,99.61
2022-10-04T23:31:38.723Z,99.86
2022-10-04T23:33:41.713Z,100.00
2022-10-04T23:35:44.415Z,100.00
2022-10-04T23:37:48.294Z,99.60
2022-10-04T23:39:51.064Z,100.00
2022-10-04T23:41:54.936Z,100.00
2022-10-04T23:43:57.130Z,100.00
2022-10-04T23:45:59.437Z,100.00
2022-10-04T23:48:01.622Z,100.00
2022-10-04T23:50:28.666Z,100.00
2022-10-04T23:52:38.263Z,100.00
2022-10-04T23:54:40.410Z,100.00
2022-10-04T23:56:44.609Z,100.00
2022-10-04T23:58:47.388Z,100.00
